createdAt,value
2018-07-15T00:00:58.464Z,5.40
2018-07-15T00:01:58.464Z,5.80
2018-07-15T00:02:58.461Z,5.40
2018-07-15T00:03:58.476Z,5.60
2018-07-15T00:04:58.475Z,5.50
2018-07-15T00:05:58.489Z,5.40
2018-07-15T00:06:58.484Z,5.20
2018-07-15T00:07:58.482Z,5.30
2018-07-15T00:08:58.480Z,5.70
2018-07-15T00:09:58.489Z,5.70
2018-07-15T00:10:58.489Z,6.10
2018-07-15T00:11:58.515Z,5.60
2018-07-15T00:12:58.506Z,6.10
2018-07-15T00:13:58.623Z,5.60
2018-07-15T00:14:59.126Z,5.90
2018-07-15T00:15:58.513Z,5.20
2018-07-15T00:16:58.514Z,5.60
2018-07-15T00:17:58.509Z,7.20
2018-07-15T00:18:58.521Z,5.60
2018-07-15T00:19:58.513Z,6.60
2018-07-15T00:20:58.515Z,5.70
2018-07-15T00:21:58.524Z,6.00
2018-07-15T00:22:58.533Z,5.70
2018-07-15T00:23:58.533Z,6.00
2018-07-15T00:24:58.530Z,6.20
2018-07-15T00:25:58.533Z,6.00
2018-07-15T00:26:58.563Z,6.40
2018-07-15T00:27:58.548Z,5.60
2018-07-15T00:28:58.537Z,6.10
2018-07-15T00:29:58.548Z,6.00
2018-07-15T00:30:58.562Z,6.80
2018-07-15T00:31:58.547Z,6.20
2018-07-15T00:32:58.555Z,6.30
2018-07-15T00:33:58.599Z,5.90
2018-07-15T00:34:59.139Z,5.70
2018-07-15T00:35:58.573Z,6.10
2018-07-15T00:36:58.572Z,6.00
2018-07-15T00:37:58.568Z,6.00
2018-07-15T00:38:58.594Z,5.70
2018-07-15T00:39:58.583Z,6.50
2018-07-15T00:40:58.572Z,6.00
2018-07-15T00:41:58.578Z,6.10
2018-07-15T00:42:58.590Z,6.70
2018-07-15T00:43:58.587Z,7.10
2018-07-15T00:44:58.591Z,6.40
2018-07-15T00:45:58.665Z,6.20
2018-07-15T00:46:58.618Z,6.30
2018-07-15T00:47:58.608Z,6.70
2018-07-15T00:48:58.604Z,6.40
2018-07-15T00:49:58.603Z,5.90
2018-07-15T00:50:58.611Z,7.20
2018-07-15T00:51:58.611Z,6.90
2018-07-15T00:52:58.608Z,6.40
2018-07-15T00:53:58.622Z,6.80
2018-07-15T00:54:58.630Z,6.70
2018-07-15T00:55:58.635Z,6.30
2018-07-15T00:56:58.620Z,6.30
2018-07-15T00:57:58.633Z,6.40
2018-07-15T00:58:58.640Z,6.20
2018-07-15T00:59:58.648Z,6.60
2018-07-15T01:00:58.641Z,6.50
2018-07-15T01:01:58.643Z,8.40
2018-07-15T01:02:58.634Z,6.60
2018-07-15T01:03:58.640Z,6.60
2018-07-15T01:04:58.651Z,6.70
2018-07-15T01:05:58.646Z,7.00
2018-07-15T01:06:58.676Z,6.10
2018-07-15T01:07:58.665Z,6.60
2018-07-15T01:08:58.671Z,6.40
2018-07-15T01:09:58.661Z,7.20
2018-07-15T01:10:58.666Z,7.10
2018-07-15T01:11:58.666Z,7.60
2018-07-15T01:12:58.660Z,6.80
2018-07-15T01:13:58.670Z,6.30
2018-07-15T01:14:58.673Z,6.60
2018-07-15T01:15:58.699Z,7.00
2018-07-15T01:16:58.678Z,6.80
2018-07-15T01:17:58.684Z,6.90
2018-07-15T01:18:58.688Z,6.60
2018-07-15T01:19:58.689Z,6.50
2018-07-15T01:20:58.699Z,7.30
2018-07-15T01:21:58.693Z,7.20
2018-07-15T01:22:58.692Z,6.80
2018-07-15T01:23:58.709Z,7.30
2018-07-15T01:24:58.694Z,6.50
2018-07-15T01:25:58.736Z,6.60
2018-07-15T01:26:58.712Z,7.40
2018-07-15T01:27:58.708Z,6.80
2018-07-15T01:28:58.719Z,6.90
2018-07-15T01:29:58.712Z,6.80
2018-07-15T01:30:58.720Z,7.20
2018-07-15T01:31:58.718Z,6.70
2018-07-15T01:32:58.746Z,6.90
2018-07-15T01:33:58.731Z,7.10
2018-07-15T01:34:58.728Z,7.30
2018-07-15T01:35:58.752Z,7.40
2018-07-15T01:36:58.731Z,7.10
2018-07-15T01:37:58.749Z,7.70
2018-07-15T01:38:58.749Z,7.50
2018-07-15T01:39:58.745Z,7.30
2018-07-15T01:40:58.758Z,7.20
2018-07-15T01:41:58.775Z,7.90
2018-07-15T01:42:58.774Z,7.20
2018-07-15T01:43:58.747Z,7.20
2018-07-15T01:44:58.775Z,7.80
2018-07-15T01:45:58.766Z,7.70
2018-07-15T01:46:58.757Z,8.10
2018-07-15T01:47:58.770Z,7.20
2018-07-15T01:48:58.786Z,7.60
2018-07-15T01:49:59.662Z,7.50
2018-07-15T01:50:58.774Z,7.10
2018-07-15T01:52:01.737Z,7.30
2018-07-15T01:52:58.772Z,7.10
2018-07-15T01:53:58.804Z,7.30
2018-07-15T01:54:58.795Z,7.00
2018-07-15T01:55:58.791Z,7.80
2018-07-15T01:56:58.793Z,7.70
2018-07-15T01:57:58.790Z,7.90
2018-07-15T01:58:58.799Z,7.90
2018-07-15T01:59:58.792Z,8.00
2018-07-15T02:00:58.811Z,7.80
2018-07-15T02:01:58.805Z,7.50
2018-07-15T02:02:58.877Z,7.50
2018-07-15T02:03:58.829Z,7.20
2018-07-15T02:04:58.804Z,7.60
2018-07-15T02:05:58.811Z,7.20
2018-07-15T02:06:58.829Z,7.60
2018-07-15T02:07:58.839Z,8.10
2018-07-15T02:08:58.825Z,8.00
2018-07-15T02:09:58.825Z,7.60
2018-07-15T02:10:58.822Z,7.90
2018-07-15T02:11:58.842Z,7.90
2018-07-15T02:12:58.839Z,7.60
2018-07-15T02:13:58.848Z,8.00
2018-07-15T02:14:58.854Z,8.00
2018-07-15T02:15:58.853Z,7.60
2018-07-15T02:17:00.742Z,8.10
2018-07-15T02:17:58.850Z,8.10
2018-07-15T02:18:58.858Z,7.80
2018-07-15T02:19:58.843Z,7.80
2018-07-15T02:20:58.845Z,8.00
2018-07-15T02:21:58.853Z,8.50
2018-07-15T02:22:58.853Z,7.50
2018-07-15T02:23:58.860Z,7.50
2018-07-15T02:24:58.864Z,8.10
2018-07-15T02:25:58.873Z,8.20
2018-07-15T02:26:58.874Z,7.80
2018-07-15T02:27:58.883Z,8.40
2018-07-15T02:28:58.880Z,8.40
2018-07-15T02:29:58.869Z,8.20
2018-07-15T02:30:58.885Z,8.10
2018-07-15T02:31:58.886Z,9.20
2018-07-15T02:32:58.888Z,9.00
2018-07-15T02:33:58.886Z,8.90
2018-07-15T02:34:58.892Z,8.10
2018-07-15T02:35:58.903Z,7.70
2018-07-15T02:36:58.914Z,8.40
2018-07-15T02:37:58.918Z,8.20
2018-07-15T02:38:58.921Z,9.10
2018-07-15T02:39:58.902Z,8.40
2018-07-15T02:40:58.917Z,8.80
2018-07-15T02:41:58.906Z,8.30
2018-07-15T02:42:58.915Z,8.90
2018-07-15T02:43:58.911Z,8.70
2018-07-15T02:44:58.945Z,9.40
2018-07-15T02:45:58.915Z,9.10
2018-07-15T02:46:58.937Z,9.70
2018-07-15T02:47:58.936Z,8.40
2018-07-15T02:48:58.941Z,9.20
2018-07-15T02:49:58.959Z,9.00
2018-07-15T02:50:58.939Z,9.50
2018-07-15T02:51:58.955Z,9.50
2018-07-15T02:52:58.958Z,9.40
2018-07-15T02:53:58.940Z,8.90
2018-07-15T02:54:58.955Z,9.50
2018-07-15T02:55:58.945Z,9.60
2018-07-15T02:56:58.947Z,9.20
2018-07-15T02:57:58.947Z,9.10
2018-07-15T02:58:58.957Z,9.40
2018-07-15T02:59:58.959Z,9.10
2018-07-15T03:00:58.953Z,9.60
2018-07-15T03:01:58.970Z,9.80
2018-07-15T03:02:58.955Z,10.10
2018-07-15T03:03:58.979Z,8.90
2018-07-15T03:04:58.994Z,10.20
2018-07-15T03:05:58.973Z,9.00
2018-07-15T03:06:59.002Z,9.80
2018-07-15T03:07:58.972Z,9.30
2018-07-15T03:08:58.981Z,9.80
2018-07-15T03:09:58.996Z,10.10
2018-07-15T03:15:43.947Z,9.30
2018-07-15T03:16:35.109Z,9.60
2018-07-15T03:17:35.035Z,9.80
2018-07-15T03:18:35.043Z,9.30
2018-07-15T03:19:35.055Z,9.80
2018-07-15T03:20:35.071Z,9.70
2018-07-15T03:21:35.038Z,9.60
2018-07-15T03:22:35.039Z,9.70
2018-07-15T03:23:35.068Z,10.00
2018-07-15T03:24:35.073Z,9.90
2018-07-15T03:25:35.501Z,9.70
2018-07-15T03:26:35.056Z,9.00
2018-07-15T03:27:35.064Z,9.50
2018-07-15T03:28:35.055Z,9.40
2018-07-15T03:29:35.080Z,9.40
2018-07-15T03:30:35.063Z,9.20
2018-07-15T03:31:35.065Z,9.00
2018-07-15T03:32:35.065Z,9.00
2018-07-15T03:33:35.080Z,9.20
2018-07-15T03:34:35.081Z,9.20
2018-07-15T03:35:35.084Z,8.60
2018-07-15T03:36:35.080Z,8.80
2018-07-15T03:37:35.086Z,9.00
2018-07-15T03:38:36.008Z,9.70
2018-07-15T03:39:35.084Z,9.20
2018-07-15T03:40:35.096Z,9.50
2018-07-15T03:41:35.088Z,8.80
2018-07-15T03:42:35.093Z,9.00
2018-07-15T03:43:35.135Z,9.20
2018-07-15T03:44:35.105Z,8.60
2018-07-15T03:45:35.099Z,9.00
2018-07-15T03:46:35.111Z,8.40
2018-07-15T03:47:35.112Z,9.00
2018-07-15T03:48:35.118Z,9.20
2018-07-15T03:49:35.126Z,10.70
2018-07-15T03:50:35.116Z,10.30
2018-07-15T03:51:35.137Z,8.70
2018-07-15T03:52:35.128Z,9.30
2018-07-15T03:53:35.150Z,8.60
2018-07-15T03:54:35.154Z,8.60
2018-07-15T03:55:35.144Z,8.90
2018-07-15T03:56:35.142Z,9.60
2018-07-15T03:57:35.141Z,8.70
2018-07-15T03:58:35.147Z,9.80
2018-07-15T03:59:35.134Z,9.10
2018-07-15T04:00:35.154Z,8.80
2018-07-15T04:01:35.146Z,8.50
2018-07-15T04:02:35.149Z,8.50
2018-07-15T04:03:35.155Z,8.80
2018-07-15T04:04:35.150Z,9.30
2018-07-15T04:05:35.147Z,9.10
2018-07-15T04:06:35.168Z,9.00
2018-07-15T04:07:35.202Z,8.70
2018-07-15T04:08:35.232Z,8.90
2018-07-15T04:09:35.155Z,8.80
2018-07-15T04:10:35.162Z,8.90
2018-07-15T04:11:35.179Z,8.80
2018-07-15T04:12:35.223Z,8.80
2018-07-15T04:13:35.203Z,9.10
2018-07-15T04:14:35.174Z,8.60
2018-07-15T04:15:35.190Z,8.70
2018-07-15T04:16:35.200Z,8.20
2018-07-15T04:17:35.209Z,8.40
2018-07-15T04:18:35.216Z,9.30
2018-07-15T04:19:35.195Z,8.20
2018-07-15T04:20:35.205Z,8.60
2018-07-15T04:21:35.228Z,9.50
2018-07-15T04:22:35.190Z,8.50
2018-07-15T04:23:35.203Z,8.70
2018-07-15T04:24:35.215Z,8.80
2018-07-15T04:25:35.209Z,9.00
2018-07-15T04:26:35.206Z,9.00
2018-07-15T04:27:35.205Z,8.80
2018-07-15T04:28:35.229Z,8.90
2018-07-15T04:29:35.212Z,9.10
2018-07-15T04:30:35.220Z,9.20
2018-07-15T04:31:35.213Z,8.70
2018-07-15T04:32:36.019Z,8.80
2018-07-15T04:33:35.226Z,8.50
2018-07-15T04:34:35.232Z,8.80
2018-07-15T04:35:35.235Z,8.80
2018-07-15T04:36:35.231Z,8.90
2018-07-15T04:37:35.237Z,8.40
2018-07-15T04:38:35.275Z,8.50
2018-07-15T04:39:35.248Z,8.20
2018-07-15T04:40:35.246Z,8.90
2018-07-15T04:41:35.240Z,8.50
2018-07-15T04:42:35.256Z,8.40
2018-07-15T04:43:35.253Z,8.40
2018-07-15T04:44:35.250Z,7.80
2018-07-15T04:45:35.273Z,8.10
2018-07-15T04:46:35.261Z,8.50
2018-07-15T04:47:35.256Z,8.40
2018-07-15T04:48:35.261Z,8.20
2018-07-15T04:49:35.281Z,7.30
2018-07-15T04:50:35.266Z,8.30
2018-07-15T04:51:35.270Z,8.20
2018-07-15T04:52:35.286Z,8.80
2018-07-15T04:53:35.298Z,7.70
2018-07-15T04:54:35.276Z,7.80
2018-07-15T04:55:35.294Z,8.20
2018-07-15T04:56:35.292Z,8.10
2018-07-15T04:57:35.285Z,8.10
2018-07-15T04:58:35.302Z,8.20
2018-07-15T04:59:35.285Z,8.10
2018-07-15T05:00:35.292Z,7.60
2018-07-15T05:01:35.298Z,8.10
2018-07-15T05:02:35.298Z,7.60
2018-07-15T05:03:35.319Z,8.00
2018-07-15T05:04:35.294Z,8.40
2018-07-15T05:05:35.305Z,8.00
2018-07-15T05:06:35.335Z,7.90
2018-07-15T05:07:35.313Z,7.80
2018-07-15T05:08:36.032Z,8.30
2018-07-15T05:09:35.340Z,8.10
2018-07-15T05:10:35.354Z,8.50
2018-07-15T05:11:35.337Z,7.90
2018-07-15T05:12:35.358Z,7.60
2018-07-15T05:13:35.325Z,8.10
2018-07-15T05:14:35.320Z,7.40
2018-07-15T05:15:35.327Z,7.80
2018-07-15T05:16:35.369Z,8.00
2018-07-15T05:17:35.336Z,8.30
2018-07-15T05:18:35.337Z,8.20
2018-07-15T05:19:35.346Z,7.70
2018-07-15T05:20:35.357Z,7.40
2018-07-15T05:21:35.380Z,7.50
2018-07-15T05:22:35.374Z,7.40
2018-07-15T05:23:35.348Z,7.80
2018-07-15T05:24:35.357Z,7.90
2018-07-15T05:25:35.359Z,7.10
2018-07-15T05:26:36.041Z,7.10
2018-07-15T05:27:35.355Z,7.50
2018-07-15T05:28:35.371Z,6.90
2018-07-15T05:29:35.374Z,6.50
2018-07-15T05:30:35.364Z,7.00
2018-07-15T05:31:35.403Z,6.90
2018-07-15T05:32:35.377Z,6.50
2018-07-15T05:33:35.379Z,6.90
2018-07-15T05:34:35.396Z,6.90
2018-07-15T05:35:35.399Z,5.90
2018-07-15T05:36:35.399Z,6.90
2018-07-15T05:37:35.402Z,6.70
2018-07-15T05:38:35.393Z,6.90
2018-07-15T05:39:35.424Z,6.20
2018-07-15T05:40:35.418Z,6.30
2018-07-15T05:41:35.406Z,6.30
2018-07-15T05:42:35.424Z,7.50
2018-07-15T05:43:35.456Z,6.60
2018-07-15T05:44:35.415Z,6.20
2018-07-15T05:45:35.411Z,6.40
2018-07-15T05:46:35.432Z,6.10
2018-07-15T05:47:35.428Z,6.00
2018-07-15T05:48:35.433Z,6.10
2018-07-15T05:49:35.437Z,6.20
2018-07-15T05:50:35.473Z,5.60
2018-07-15T05:51:35.452Z,6.00
2018-07-15T05:52:35.461Z,5.60
2018-07-15T05:53:35.473Z,6.30
2018-07-15T05:54:35.469Z,5.90
2018-07-15T05:55:35.480Z,6.10
2018-07-15T05:56:35.508Z,6.40
2018-07-15T05:57:35.497Z,5.80
2018-07-15T05:58:35.501Z,6.10
2018-07-15T05:59:35.525Z,5.30
2018-07-15T06:00:35.502Z,5.20
2018-07-15T06:01:35.509Z,6.10
2018-07-15T06:02:35.568Z,5.70
2018-07-15T06:03:35.588Z,5.10
2018-07-15T06:04:35.546Z,5.60
2018-07-15T06:05:35.543Z,5.50
2018-07-15T06:06:35.549Z,6.30
2018-07-15T06:07:35.607Z,5.10
2018-07-15T06:08:35.559Z,6.20
2018-07-15T06:09:36.061Z,5.40
2018-07-15T06:10:35.614Z,4.90
2018-07-15T06:11:35.583Z,5.50
2018-07-15T06:12:35.608Z,5.90
2018-07-15T06:13:35.594Z,5.40
2018-07-15T06:14:35.611Z,5.10
2018-07-15T06:15:35.619Z,4.60
2018-07-15T06:16:35.628Z,4.90
2018-07-15T06:17:35.647Z,5.10
2018-07-15T06:18:35.632Z,4.70
2018-07-15T06:19:35.643Z,4.60
2018-07-15T06:20:35.655Z,4.80
2018-07-15T06:21:35.684Z,5.10
2018-07-15T06:22:35.705Z,4.70
2018-07-15T06:23:35.715Z,5.10
2018-07-15T06:24:35.684Z,4.90
2018-07-15T06:25:35.701Z,5.50
2018-07-15T06:26:35.729Z,5.40
2018-07-15T06:27:35.713Z,5.00
2018-07-15T06:28:35.730Z,5.30
2018-07-15T06:29:35.727Z,4.70
2018-07-15T06:30:35.763Z,4.50
2018-07-15T06:31:35.772Z,4.50
2018-07-15T06:32:35.760Z,4.70
2018-07-15T06:33:35.764Z,4.60
2018-07-15T06:34:35.797Z,4.70
2018-07-15T06:35:35.784Z,5.80
2018-07-15T06:36:35.798Z,5.50
2018-07-15T06:37:35.815Z,4.70
2018-07-15T06:38:35.813Z,4.70
2018-07-15T06:39:35.842Z,4.70
2018-07-15T06:40:35.835Z,5.30
2018-07-15T06:41:35.871Z,4.60
2018-07-15T06:42:35.863Z,4.60
2018-07-15T06:43:35.869Z,4.40
2018-07-15T06:44:35.883Z,4.90
2018-07-15T06:45:35.891Z,4.70
2018-07-15T06:46:35.897Z,4.40
2018-07-15T06:47:35.925Z,4.80
2018-07-15T06:48:37.673Z,4.80
2018-07-15T06:49:35.948Z,4.40
2018-07-15T06:50:35.943Z,4.50
2018-07-15T06:51:35.952Z,4.70
2018-07-15T06:52:35.975Z,4.40
2018-07-15T06:53:35.984Z,4.80
2018-07-15T06:54:35.989Z,4.80
2018-07-15T06:55:36.028Z,4.70
2018-07-15T06:56:36.018Z,4.60
2018-07-15T06:57:36.041Z,4.30
2018-07-15T06:58:36.035Z,4.30
2018-07-15T06:59:36.060Z,4.40
2018-07-15T07:00:36.067Z,5.20
2018-07-15T07:24:13.919Z,3.70
2018-07-15T07:24:44.324Z,4.40
2018-07-15T07:25:44.346Z,3.70
2018-07-15T07:26:44.361Z,3.60
2018-07-15T07:27:44.428Z,4.00
2018-07-15T07:28:44.685Z,3.50
2018-07-15T07:29:44.397Z,3.80
2018-07-15T07:30:44.447Z,3.90
2018-07-15T07:31:44.438Z,3.90
2018-07-15T07:32:44.464Z,3.30
2018-07-15T07:33:44.476Z,3.80
2018-07-15T07:34:44.511Z,3.60
2018-07-15T07:35:44.477Z,4.10
2018-07-15T07:36:44.513Z,3.60
2018-07-15T07:37:44.545Z,3.30
2018-07-15T07:38:44.584Z,4.60
2018-07-15T07:39:44.542Z,3.20
2018-07-15T07:40:44.575Z,3.40
2018-07-15T07:41:44.592Z,4.80
2018-07-15T07:42:44.593Z,4.20
2018-07-15T07:43:44.604Z,4.50
2018-07-15T07:44:44.617Z,3.70
2018-07-15T07:45:44.672Z,4.70
2018-07-15T07:46:44.653Z,3.60
2018-07-15T07:47:44.673Z,3.90
2018-07-15T07:48:44.674Z,3.50
2018-07-15T07:49:44.691Z,4.50
2018-07-15T07:50:44.737Z,3.60
2018-07-15T07:51:44.736Z,3.30
2018-07-15T07:52:44.753Z,3.90
2018-07-15T07:53:44.746Z,3.70
2018-07-15T07:54:44.771Z,3.30
2018-07-15T07:55:44.784Z,4.20
2018-07-15T07:56:44.830Z,3.40
2018-07-15T07:57:44.823Z,3.20
2018-07-15T07:58:44.845Z,2.90
2018-07-15T07:59:45.314Z,3.20
2018-07-15T08:00:44.885Z,3.40
2018-07-15T08:01:44.880Z,2.90
2018-07-15T08:02:44.895Z,3.20
2018-07-15T08:03:44.937Z,2.70
2018-07-15T08:04:44.922Z,3.10
2018-07-15T08:05:44.941Z,3.70
2018-07-15T08:06:44.988Z,2.70
2018-07-15T08:07:45.062Z,3.70
2018-07-15T08:08:44.993Z,3.00
2018-07-15T08:09:45.012Z,3.30
2018-07-15T08:10:45.039Z,2.80
2018-07-15T08:11:46.919Z,2.60
2018-07-15T08:12:45.063Z,3.00
2018-07-15T08:13:45.079Z,3.10
2018-07-15T08:14:45.148Z,2.40
2018-07-15T08:15:45.113Z,2.40
2018-07-15T08:16:45.155Z,2.70
2018-07-15T08:17:45.165Z,2.80
2018-07-15T08:18:45.191Z,2.60
2018-07-15T08:19:45.223Z,2.60
2018-07-15T08:20:45.213Z,2.80
2018-07-15T08:21:45.224Z,2.10
2018-07-15T08:22:45.250Z,2.30
2018-07-15T08:23:45.268Z,3.10
2018-07-15T08:24:46.895Z,4.20
2018-07-15T08:25:45.276Z,2.40
2018-07-15T08:26:45.296Z,2.50
2018-07-15T08:27:45.328Z,2.50
2018-07-15T08:28:45.331Z,2.30
2018-07-15T08:29:45.360Z,2.30
2018-07-15T08:30:45.370Z,2.70
2018-07-15T08:31:45.387Z,2.20
2018-07-15T08:32:45.430Z,2.70
2018-07-15T08:33:45.427Z,2.40
2018-07-15T08:34:45.509Z,2.20
2018-07-15T08:35:45.466Z,2.30
2018-07-15T08:36:45.500Z,2.10
2018-07-15T08:37:45.517Z,2.60
2018-07-15T08:38:45.517Z,2.40
2018-07-15T08:39:45.559Z,1.90
2018-07-15T08:40:45.571Z,2.80
2018-07-15T08:41:45.581Z,2.00
2018-07-15T08:42:45.613Z,2.00
2018-07-15T08:43:45.639Z,2.60
2018-07-15T08:44:45.633Z,3.30
2018-07-15T08:45:45.679Z,2.70
2018-07-15T08:46:45.678Z,2.40
2018-07-15T08:47:45.714Z,2.00
2018-07-15T08:48:45.712Z,3.60
2018-07-15T08:49:45.738Z,2.00
2018-07-15T08:50:45.789Z,2.00
2018-07-15T08:51:45.881Z,2.10
2018-07-15T08:52:45.791Z,2.20
2018-07-15T08:53:45.817Z,2.00
2018-07-15T08:54:45.931Z,2.10
2018-07-15T08:55:45.852Z,2.20
2018-07-15T08:56:45.871Z,1.90
2018-07-15T08:57:45.906Z,2.30
2018-07-15T08:58:45.945Z,2.60
2018-07-15T08:59:45.953Z,2.10
2018-07-15T09:00:45.965Z,2.10
2018-07-15T09:01:45.994Z,1.60
2018-07-15T09:02:45.986Z,1.60
2018-07-15T09:03:46.015Z,1.90
2018-07-15T09:04:46.023Z,1.90
2018-07-15T09:05:46.053Z,1.70
2018-07-15T09:06:46.132Z,1.90
2018-07-15T09:07:46.122Z,1.70
2018-07-15T09:08:46.111Z,2.10
2018-07-15T09:09:46.132Z,2.10
2018-07-15T09:10:46.149Z,2.00
2018-07-15T09:11:46.175Z,1.70
2018-07-15T09:12:48.008Z,2.40
2018-07-15T09:13:46.860Z,1.50
2018-07-15T09:14:46.261Z,2.50
2018-07-15T09:15:46.256Z,1.90
2018-07-15T09:16:46.266Z,1.90
2018-07-15T09:17:46.291Z,2.20
2018-07-15T09:18:46.329Z,2.20
2018-07-15T09:19:46.381Z,1.90
2018-07-15T09:20:46.350Z,2.50
2018-07-15T09:21:46.456Z,2.30
2018-07-15T09:22:46.422Z,2.10
2018-07-15T09:23:46.422Z,2.20
2018-07-15T09:24:46.469Z,1.60
2018-07-15T09:25:46.461Z,1.70
2018-07-15T09:26:46.478Z,2.20
2018-07-15T09:27:46.513Z,1.80
2018-07-15T09:28:46.511Z,1.60
2018-07-15T09:29:46.594Z,1.60
2018-07-15T09:30:46.570Z,1.40
2018-07-15T09:31:46.589Z,1.60
2018-07-15T09:32:46.642Z,2.20
2018-07-15T09:33:46.635Z,2.00
2018-07-15T09:34:46.653Z,2.40
2018-07-15T09:35:46.683Z,1.90
2018-07-15T09:36:46.731Z,2.00
2018-07-15T09:37:46.719Z,2.00
2018-07-15T09:38:46.764Z,2.10
2018-07-15T09:39:46.766Z,2.20
2018-07-15T09:40:46.830Z,3.80
2018-07-15T09:41:46.822Z,1.50
2018-07-15T09:42:46.837Z,1.70
2018-07-15T09:43:46.852Z,4.00
2018-07-15T09:44:46.867Z,1.70
2018-07-15T09:45:46.888Z,1.60
2018-07-15T09:46:48.447Z,1.30
2018-07-15T09:47:46.971Z,1.70
2018-07-15T09:48:47.003Z,2.00
2018-07-15T09:49:46.990Z,1.40
2018-07-15T09:50:47.037Z,1.60
2018-07-15T09:51:47.046Z,2.00
2018-07-15T09:52:47.056Z,2.20
2018-07-15T09:53:47.184Z,2.40
2018-07-15T09:54:47.087Z,1.80
2018-07-15T09:55:47.170Z,1.60
2018-07-15T09:56:47.146Z,1.90
2018-07-15T09:57:47.175Z,1.70
2018-07-15T09:58:47.230Z,1.50
2018-07-15T09:59:47.212Z,2.00
2018-07-15T10:00:47.231Z,1.30
2018-07-15T10:01:47.253Z,2.20
2018-07-15T10:02:47.892Z,1.40
2018-07-15T10:03:47.294Z,1.30
2018-07-15T10:04:47.350Z,1.30
2018-07-15T10:05:47.355Z,1.30
2018-07-15T10:06:47.376Z,1.80
2018-07-15T10:07:47.396Z,1.40
2018-07-15T10:08:47.437Z,1.60
2018-07-15T10:09:47.466Z,3.30
2018-07-15T10:10:47.492Z,1.30
2018-07-15T10:11:47.487Z,1.50
2018-07-15T10:12:47.551Z,1.70
2018-07-15T10:13:47.549Z,1.70
2018-07-15T10:14:47.618Z,1.30
2018-07-15T10:15:47.579Z,1.60
2018-07-15T10:16:47.622Z,2.80
2018-07-15T10:17:47.641Z,2.20
2018-07-15T10:18:47.653Z,1.60
2018-07-15T10:19:47.718Z,1.90
2018-07-15T10:20:47.747Z,1.60
2018-07-15T10:21:47.774Z,2.20
2018-07-15T10:22:47.781Z,2.00
2018-07-15T10:23:47.779Z,2.10
2018-07-15T10:24:47.800Z,1.40
2018-07-15T10:25:47.815Z,1.70
2018-07-15T10:26:47.843Z,1.30
2018-07-15T10:27:47.885Z,1.40
2018-07-15T10:28:47.889Z,2.80
2018-07-15T10:29:47.982Z,1.60
2018-07-15T10:30:47.964Z,1.60
2018-07-15T10:31:48.027Z,1.50
2018-07-15T10:32:47.996Z,2.40
2018-07-15T10:33:48.004Z,1.60
2018-07-15T10:34:48.013Z,1.40
2018-07-15T10:35:48.042Z,1.70
2018-07-15T10:36:48.908Z,1.80
2018-07-15T10:37:48.103Z,1.40
2018-07-15T10:38:48.359Z,1.70
2018-07-15T10:39:48.174Z,1.90
2018-07-15T10:40:48.186Z,1.60
2018-07-15T10:41:48.166Z,3.40
2018-07-15T10:42:48.180Z,1.70
2018-07-15T10:43:48.211Z,1.30
2018-07-15T10:44:48.218Z,1.50
2018-07-15T10:45:48.256Z,1.80
2018-07-15T10:46:49.981Z,1.60
2018-07-15T10:47:48.334Z,1.70
2018-07-15T10:48:48.352Z,1.50
2018-07-15T10:49:48.318Z,1.80
2018-07-15T10:50:48.338Z,2.40
2018-07-15T10:51:48.369Z,2.30
2018-07-15T10:52:48.427Z,1.50
2018-07-15T10:53:48.388Z,2.80
2018-07-15T10:54:48.415Z,1.70
2018-07-15T10:55:48.425Z,1.70
2018-07-15T10:56:48.448Z,1.50
2018-07-15T10:57:48.465Z,2.50
2018-07-15T10:58:49.421Z,2.20
2018-07-15T10:59:48.525Z,1.50
2018-07-15T11:00:48.513Z,1.80
2018-07-15T11:01:48.537Z,1.70
2018-07-15T11:02:48.535Z,2.00
2018-07-15T11:03:48.570Z,2.10
2018-07-15T11:04:48.570Z,1.70
2018-07-15T11:05:48.579Z,2.00
2018-07-15T11:06:48.636Z,1.60
2018-07-15T11:07:48.600Z,1.60
2018-07-15T11:08:49.428Z,2.40
2018-07-15T11:09:48.642Z,3.00
2018-07-15T11:10:48.665Z,2.40
2018-07-15T11:11:48.652Z,2.30
2018-07-15T11:12:48.661Z,2.30
2018-07-15T11:13:48.688Z,1.80
2018-07-15T11:14:48.688Z,2.20
2018-07-15T11:15:48.698Z,2.10
2018-07-15T11:16:48.706Z,1.60
2018-07-15T11:17:48.718Z,2.30
2018-07-15T11:18:48.732Z,2.30
2018-07-15T11:19:48.741Z,1.60
2018-07-15T11:20:48.773Z,1.80
2018-07-15T11:21:48.781Z,1.50
2018-07-15T11:22:48.782Z,1.90
2018-07-15T11:23:48.787Z,4.30
2018-07-15T11:24:48.794Z,3.10
2018-07-15T11:25:48.800Z,1.80
2018-07-15T11:26:48.823Z,2.00
2018-07-15T11:27:48.824Z,2.30
2018-07-15T11:28:48.836Z,2.70
2018-07-15T11:29:48.844Z,1.60
2018-07-15T11:30:48.930Z,1.70
2018-07-15T11:31:48.874Z,3.50
2018-07-15T11:32:48.875Z,2.20
2018-07-15T11:33:48.883Z,2.00
2018-07-15T11:34:48.894Z,2.80
2018-07-15T11:35:48.900Z,1.60
2018-07-15T11:36:48.919Z,1.60
2018-07-15T11:37:48.922Z,1.50
2018-07-15T11:38:48.928Z,2.00
2018-07-15T11:39:48.946Z,2.70
2018-07-15T11:40:48.961Z,1.80
2018-07-15T11:41:48.961Z,1.80
2018-07-15T11:42:49.024Z,1.60
2018-07-15T11:43:48.998Z,2.50
2018-07-15T11:44:49.008Z,1.50
2018-07-15T11:45:48.994Z,1.60
2018-07-15T11:46:49.035Z,2.20
2018-07-15T11:47:49.017Z,1.90
2018-07-15T11:48:49.024Z,2.40
2018-07-15T11:49:49.038Z,1.70
2018-07-15T11:50:49.031Z,2.00
2018-07-15T11:51:49.044Z,3.20
2018-07-15T11:52:49.059Z,1.60
2018-07-15T11:53:49.065Z,3.20
2018-07-15T11:54:49.070Z,2.10
2018-07-15T11:55:49.080Z,2.30
2018-07-15T11:56:49.163Z,1.80
2018-07-15T11:57:49.101Z,1.60
2018-07-15T11:58:49.103Z,2.40
2018-07-15T11:59:49.111Z,1.70
2018-07-15T12:00:49.122Z,2.00
2018-07-15T12:01:49.179Z,1.90
2018-07-15T12:02:49.158Z,1.50
2018-07-15T12:03:49.146Z,3.00
2018-07-15T12:04:49.155Z,2.10
2018-07-15T12:05:49.161Z,1.70
2018-07-15T12:06:49.177Z,2.40
2018-07-15T12:07:49.189Z,1.80
2018-07-15T12:08:49.202Z,2.00
2018-07-15T12:09:51.075Z,2.30
2018-07-15T12:10:49.207Z,1.70
2018-07-15T12:11:49.231Z,2.00
2018-07-15T12:12:49.226Z,1.70
2018-07-15T12:13:49.256Z,1.80
2018-07-15T12:14:49.265Z,1.60
2018-07-15T12:15:49.279Z,1.50
2018-07-15T12:16:49.255Z,3.00
2018-07-15T12:17:49.262Z,1.90
2018-07-15T12:18:49.274Z,2.50
2018-07-15T12:19:49.355Z,2.10
2018-07-15T12:20:49.314Z,4.20
2018-07-15T12:21:49.319Z,2.50
2018-07-15T12:22:49.321Z,2.30
2018-07-15T12:23:49.324Z,1.90
2018-07-15T12:24:49.347Z,2.90
2018-07-15T12:25:49.325Z,1.80
2018-07-15T12:26:49.336Z,2.40
2018-07-15T12:27:49.362Z,1.90
2018-07-15T12:28:49.365Z,2.10
2018-07-15T12:29:49.420Z,2.00
2018-07-15T12:30:49.368Z,1.50
2018-07-15T12:31:49.383Z,2.70
2018-07-15T12:32:49.406Z,1.60
2018-07-15T12:33:49.402Z,1.90
2018-07-15T12:34:49.407Z,2.00
2018-07-15T12:35:49.426Z,2.80
2018-07-15T12:36:49.413Z,2.00
2018-07-15T12:37:49.451Z,4.20
2018-07-15T12:38:49.449Z,2.30
2018-07-15T12:39:49.444Z,2.40
2018-07-15T12:40:49.441Z,1.60
2018-07-15T12:41:49.485Z,2.20
2018-07-15T12:42:49.468Z,2.00
2018-07-15T12:43:49.484Z,2.00
2018-07-15T12:44:49.547Z,1.60
2018-07-15T12:45:49.504Z,2.10
2018-07-15T12:46:49.484Z,2.20
2018-07-15T12:47:49.512Z,1.60
2018-07-15T12:48:49.501Z,3.20
2018-07-15T12:49:49.515Z,1.80
2018-07-15T12:50:49.528Z,1.70
2018-07-15T12:51:49.534Z,2.10
2018-07-15T12:52:49.538Z,4.00
2018-07-15T12:53:49.545Z,2.00
2018-07-15T12:54:49.557Z,1.90
2018-07-15T12:55:49.564Z,2.30
2018-07-15T12:56:49.576Z,3.30
2018-07-15T12:57:49.614Z,1.60
2018-07-15T12:58:49.590Z,1.60
2018-07-15T12:59:49.613Z,2.20
2018-07-15T13:00:49.599Z,1.70
2018-07-15T13:01:49.601Z,1.80
2018-07-15T13:02:49.609Z,2.30
2018-07-15T13:03:49.622Z,1.80
2018-07-15T13:04:49.624Z,2.10
2018-07-15T13:05:49.636Z,1.90
2018-07-15T13:06:49.649Z,1.60
2018-07-15T13:07:49.717Z,1.90
2018-07-15T13:08:49.671Z,2.10
2018-07-15T13:09:49.679Z,2.20
2018-07-15T13:10:49.670Z,1.80
2018-07-15T13:11:49.674Z,3.30
2018-07-15T13:12:49.680Z,1.70
2018-07-15T13:13:49.712Z,3.30
2018-07-15T13:14:49.715Z,2.30
2018-07-15T13:15:49.708Z,2.00
2018-07-15T13:16:49.719Z,1.90
2018-07-15T13:17:49.719Z,3.40
2018-07-15T13:18:49.728Z,2.80
2018-07-15T13:19:49.766Z,1.80
2018-07-15T13:20:49.758Z,3.10
2018-07-15T13:21:49.749Z,2.30
2018-07-15T13:22:49.762Z,3.50
2018-07-15T13:23:49.779Z,2.70
2018-07-15T13:24:49.772Z,3.10
2018-07-15T13:25:49.787Z,1.70
2018-07-15T13:26:49.792Z,2.20
2018-07-15T13:27:49.797Z,1.80
2018-07-15T13:28:49.792Z,1.50
2018-07-15T13:29:49.865Z,2.40
2018-07-15T13:30:49.816Z,2.30
2018-07-15T13:31:49.822Z,2.20
2018-07-15T13:32:49.830Z,1.70
2018-07-15T13:33:49.836Z,1.70
2018-07-15T13:34:49.856Z,2.00
2018-07-15T13:35:49.901Z,2.20
2018-07-15T13:36:49.866Z,1.70
2018-07-15T13:37:49.865Z,2.20
2018-07-15T13:38:49.874Z,3.40
2018-07-15T13:39:49.908Z,2.10
2018-07-15T13:40:49.886Z,2.10
2018-07-15T13:41:49.913Z,2.30
2018-07-15T13:42:49.897Z,3.60
2018-07-15T13:43:49.923Z,1.80
2018-07-15T13:44:51.574Z,1.90
2018-07-15T13:45:50.517Z,3.20